sensor_id;sensor_type;location;lat;lon;timestamp;pressure;altitude;pressure_sealevel;temperature;humidity
77366;BME280;66430;50.182;11.704;2024-02-15T00:01:48;95008.64;;;12.23;43.36
77366;BME280;66430;50.182;11.704;2024-02-15T00:04:08;95005.38;;;12.06;43.72
77366;BME280;66430;50.182;11.704;2024-02-15T00:06:34;95006.11;;;11.99;43.33
77366;BME280;66430;50.182;11.704;2024-02-15T00:08:59;95006.49;;;12.39;43.33
77366;BME280;66430;50.182;11.704;2024-02-15T00:11:24;95003.13;;;12.17;43.35
77366;BME280;66430;50.182;11.704;2024-02-15T00:13:50;95002.96;;;12.32;43.26
77366;BME280;66430;50.182;11.704;2024-02-15T00:16:16;95003.38;;;12.37;43.25
77366;BME280;66430;50.182;11.704;2024-02-15T00:18:41;95004.52;;;12.34;43.32
77366;BME280;66430;50.182;11.704;2024-02-15T00:21:07;95000.61;;;11.70;43.54
77366;BME280;66430;50.182;11.704;2024-02-15T00:23:32;94998.62;;;12.16;43.36
77366;BME280;66430;50.182;11.704;2024-02-15T00:25:57;94999.93;;;12.34;43.22
77366;BME280;66430;50.182;11.704;2024-02-15T00:28:23;94999.61;;;12.61;43.28
77366;BME280;66430;50.182;11.704;2024-02-15T00:30:48;95002.71;;;12.43;43.17
77366;BME280;66430;50.182;11.704;2024-02-15T00:33:14;95003.60;;;12.44;42.98
77366;BME280;66430;50.182;11.704;2024-02-15T00:35:39;95006.97;;;12.16;43.20
77366;BME280;66430;50.182;11.704;2024-02-15T00:38:05;95006.55;;;11.93;43.65
77366;BME280;66430;50.182;11.704;2024-02-15T00:40:30;95006.61;;;12.31;43.23
77366;BME280;66430;50.182;11.704;2024-02-15T00:42:56;95007.33;;;12.39;43.48
77366;BME280;66430;50.182;11.704;2024-02-15T00:45:21;95006.09;;;12.50;43.21
77366;BME280;66430;50.182;11.704;2024-02-15T00:47:47;95006.37;;;12.57;43.47
77366;BME280;66430;50.182;11.704;2024-02-15T00:50:12;95007.92;;;12.57;43.43
77366;BME280;66430;50.182;11.704;2024-02-15T00:52:37;95003.70;;;12.25;43.31
77366;BME280;66430;50.182;11.704;2024-02-15T00:55:03;95010.87;;;12.52;43.13
77366;BME280;66430;50.182;11.704;2024-02-15T00:57:28;95012.68;;;12.24;43.67
77366;BME280;66430;50.182;11.704;2024-02-15T00:59:59;95008.37;;;12.40;43.71
77366;BME280;66430;50.182;11.704;2024-02-15T01:02:20;95010.23;;;12.75;43.26
77366;BME280;66430;50.182;11.704;2024-02-15T01:04:45;95010.97;;;12.59;43.45
77366;BME280;66430;50.182;11.704;2024-02-15T01:07:10;95011.83;;;12.50;43.06
77366;BME280;66430;50.182;11.704;2024-02-15T01:09:36;95010.40;;;12.23;43.92
77366;BME280;66430;50.182;11.704;2024-02-15T01:12:01;95012.40;;;12.36;43.66
77366;BME280;66430;50.182;11.704;2024-02-15T01:14:27;95011.55;;;12.61;43.55
77366;BME280;66430;50.182;11.704;2024-02-15T01:16:52;95009.91;;;12.53;43.57
77366;BME280;66430;50.182;11.704;2024-02-15T01:19:17;95007.31;;;12.51;43.45
77366;BME280;66430;50.182;11.704;2024-02-15T01:21:43;95006.09;;;12.45;43.19
77366;BME280;66430;50.182;11.704;2024-02-15T01:24:08;95007.27;;;12.80;43.10
77366;BME280;66430;50.182;11.704;2024-02-15T01:26:34;95003.31;;;11.78;43.74
77366;BME280;66430;50.182;11.704;2024-02-15T01:28:59;95002.73;;;12.42;43.18
77366;BME280;66430;50.182;11.704;2024-02-15T01:31:25;95001.06;;;12.33;43.22
77366;BME280;66430;50.182;11.704;2024-02-15T01:33:51;94999.58;;;12.15;43.86
77366;BME280;66430;50.182;11.704;2024-02-15T01:36:16;95001.71;;;12.30;43.23
77366;BME280;66430;50.182;11.704;2024-02-15T01:38:41;95001.28;;;12.28;43.32
77366;BME280;66430;50.182;11.704;2024-02-15T01:41:07;94999.05;;;12.44;43.02
77366;BME280;66430;50.182;11.704;2024-02-15T01:43:32;94996.50;;;12.62;43.05
77366;BME280;66430;50.182;11.704;2024-02-15T01:45:57;95000.02;;;12.27;43.75
77366;BME280;66430;50.182;11.704;2024-02-15T01:48:23;94997.95;;;12.58;43.67
77366;BME280;66430;50.182;11.704;2024-02-15T01:50:49;94996.92;;;12.36;43.70
77366;BME280;66430;50.182;11.704;2024-02-15T01:53:14;94996.87;;;12.67;43.71
77366;BME280;66430;50.182;11.704;2024-02-15T01:55:46;94994.44;;;12.34;43.54
77366;BME280;66430;50.182;11.704;2024-02-15T01:58:05;94991.04;;;12.11;43.66
77366;BME280;66430;50.182;11.704;2024-02-15T02:00:31;94989.80;;;12.45;43.25
77366;BME280;66430;50.182;11.704;2024-02-15T02:02:57;94986.72;;;12.31;43.28
77366;BME280;66430;50.182;11.704;2024-02-15T02:05:22;94987.31;;;12.43;43.52
77366;BME280;66430;50.182;11.704;2024-02-15T02:07:47;94981.90;;;12.23;43.37
77366;BME280;66430;50.182;11.704;2024-02-15T02:10:12;94979.91;;;12.48;42.97
77366;BME280;66430;50.182;11.704;2024-02-15T02:12:39;94977.85;;;12.61;43.20
77366;BME280;66430;50.182;11.704;2024-02-15T02:15:03;94974.17;;;12.64;42.85
77366;BME280;66430;50.182;11.704;2024-02-15T02:17:29;94973.29;;;12.91;42.92
77366;BME280;66430;50.182;11.704;2024-02-15T02:19:54;94971.57;;;12.77;42.97
77366;BME280;66430;50.182;11.704;2024-02-15T02:22:20;94971.03;;;12.80;43.24
77366;BME280;66430;50.182;11.704;2024-02-15T02:24:55;94973.22;;;12.45;43.54
77366;BME280;66430;50.182;11.704;2024-02-15T02:27:11;94973.09;;;12.53;43.46
77366;BME280;66430;50.182;11.704;2024-02-15T02:29:36;94972.36;;;12.70;43.36
77366;BME280;66430;50.182;11.704;2024-02-15T02:32:01;94970.35;;;12.94;43.33
77366;BME280;66430;50.182;11.704;2024-02-15T02:34:27;94971.87;;;12.69;43.45
77366;BME280;66430;50.182;11.704;2024-02-15T02:36:52;94970.26;;;12.68;43.26
77366;BME280;66430;50.182;11.704;2024-02-15T02:39:18;94970.36;;;12.83;43.06
77366;BME280;66430;50.182;11.704;2024-02-15T02:41:43;94966.12;;;12.57;43.57
77366;BME280;66430;50.182;11.704;2024-02-15T02:44:08;94969.49;;;12.11;43.47
77366;BME280;66430;50.182;11.704;2024-02-15T02:46:34;94965.85;;;12.65;43.49
77366;BME280;66430;50.182;11.704;2024-02-15T02:49:02;94965.13;;;12.46;43.38
77366;BME280;66430;50.182;11.704;2024-02-15T02:51:25;94961.60;;;12.46;43.49
77366;BME280;66430;50.182;11.704;2024-02-15T02:53:51;94960.41;;;12.40;43.52
77366;BME280;66430;50.182;11.704;2024-02-15T02:56:15;94958.51;;;12.67;43.27
77366;BME280;66430;50.182;11.704;2024-02-15T02:58:41;94957.65;;;12.68;43.18
77366;BME280;66430;50.182;11.704;2024-02-15T03:01:08;94959.20;;;12.16;43.61
77366;BME280;66430;50.182;11.704;2024-02-15T03:03:33;94963.29;;;12.55;43.41
77366;BME280;66430;50.182;11.704;2024-02-15T03:05:58;94969.38;;;11.86;44.13
77366;BME280;66430;50.182;11.704;2024-02-15T03:08:25;94970.62;;;12.10;44.07
77366;BME280;66430;50.182;11.704;2024-02-15T03:10:48;94967.19;;;12.42;43.88
77366;BME280;66430;50.182;11.704;2024-02-15T03:13:14;94969.82;;;12.25;43.82
77366;BME280;66430;50.182;11.704;2024-02-15T03:15:39;94966.73;;;12.66;43.81
77366;BME280;66430;50.182;11.704;2024-02-15T03:18:05;94969.46;;;12.62;43.99
77366;BME280;66430;50.182;11.704;2024-02-15T03:20:30;94971.72;;;12.58;44.02
77366;BME280;66430;50.182;11.704;2024-02-15T03:22:56;94967.88;;;12.45;43.87
77366;BME280;66430;50.182;11.704;2024-02-15T03:25:21;94969.06;;;12.77;43.68
77366;BME280;66430;50.182;11.704;2024-02-15T03:27:47;94964.34;;;12.53;43.63
77366;BME280;66430;50.182;11.704;2024-02-15T03:30:14;94963.85;;;12.58;43.94
77366;BME280;66430;50.182;11.704;2024-02-15T03:32:38;94969.30;;;12.50;44.10
77366;BME280;66430;50.182;11.704;2024-02-15T03:35:03;94967.99;;;12.38;43.95
77366;BME280;66430;50.182;11.704;2024-02-15T03:37:28;94970.67;;;12.63;43.73
77366;BME280;66430;50.182;11.704;2024-02-15T03:39:53;94969.21;;;12.57;44.13
77366;BME280;66430;50.182;11.704;2024-02-15T03:42:19;94963.19;;;12.52;43.77
77366;BME280;66430;50.182;11.704;2024-02-15T03:44:44;94960.80;;;12.29;43.73
77366;BME280;66430;50.182;11.704;2024-02-15T03:47:11;94961.24;;;12.63;44.27
77366;BME280;66430;50.182;11.704;2024-02-15T03:49:36;94962.74;;;12.13;44.50
77366;BME280;66430;50.182;11.704;2024-02-15T03:52:01;94964.04;;;11.98;44.58
77366;BME280;66430;50.182;11.704;2024-02-15T03:54:26;94960.84;;;12.59;44.05
77366;BME280;66430;50.182;11.704;2024-02-15T03:56:51;94961.35;;;12.05;44.26
77366;BME280;66430;50.182;11.704;2024-02-15T03:59:19;94963.57;;;12.54;43.95
77366;BME280;66430;50.182;11.704;2024-02-15T04:01:43;94964.88;;;12.59;43.78
77366;BME280;66430;50.182;11.704;2024-02-15T04:04:08;94968.86;;;12.57;43.84
77366;BME280;66430;50.182;11.704;2024-02-15T04:06:33;94972.76;;;12.45;43.82
77366;BME280;66430;50.182;11.704;2024-02-15T04:08:59;94972.85;;;11.77;44.65
77366;BME280;66430;50.182;11.704;2024-02-15T04:11:24;94975.30;;;11.94;45.45
77366;BME280;66430;50.182;11.704;2024-02-15T04:13:51;94970.23;;;12.21;44.11
77366;BME280;66430;50.182;11.704;2024-02-15T04:16:15;94970.28;;;12.49;44.27
77366;BME280;66430;50.182;11.704;2024-02-15T04:18:41;94974.48;;;12.48;43.77
77366;BME280;66430;50.182;11.704;2024-02-15T04:21:06;94984.94;;;11.92;44.10
77366;BME280;66430;50.182;11.704;2024-02-15T04:23:31;94983.32;;;12.42;43.75
77366;BME280;66430;50.182;11.704;2024-02-15T04:25:57;94985.95;;;12.57;43.69
77366;BME280;66430;50.182;11.704;2024-02-15T04:28:24;94989.08;;;12.62;43.59
77366;BME280;66430;50.182;11.704;2024-02-15T04:30:51;94985.49;;;12.60;43.80
77366;BME280;66430;50.182;11.704;2024-02-15T04:33:13;94986.28;;;12.29;44.01
77366;BME280;66430;50.182;11.704;2024-02-15T04:35:39;94978.72;;;12.71;43.91
77366;BME280;66430;50.182;11.704;2024-02-15T04:38:04;94973.01;;;12.51;44.27
77366;BME280;66430;50.182;11.704;2024-02-15T04:40:30;94979.86;;;12.73;43.93
77366;BME280;66430;50.182;11.704;2024-02-15T04:42:55;94981.68;;;12.90;43.98
77366;BME280;66430;50.182;11.704;2024-02-15T04:45:25;94982.87;;;12.52;43.98
77366;BME280;66430;50.182;11.704;2024-02-15T04:47:46;94984.05;;;12.41;43.83
77366;BME280;66430;50.182;11.704;2024-02-15T04:50:11;94982.02;;;12.53;44.01
77366;BME280;66430;50.182;11.704;2024-02-15T04:52:37;94985.13;;;12.19;43.60
77366;BME280;66430;50.182;11.704;2024-02-15T04:55:02;94989.41;;;12.63;43.47
77366;BME280;66430;50.182;11.704;2024-02-15T04:57:27;94986.32;;;12.76;43.67
77366;BME280;66430;50.182;11.704;2024-02-15T04:59:53;94986.05;;;12.69;43.40
77366;BME280;66430;50.182;11.704;2024-02-15T05:02:18;94987.74;;;12.56;44.05
77366;BME280;66430;50.182;11.704;2024-02-15T05:04:45;94991.78;;;12.64;43.62
77366;BME280;66430;50.182;11.704;2024-02-15T05:07:10;94987.86;;;12.72;43.80
77366;BME280;66430;50.182;11.704;2024-02-15T05:09:34;94996.24;;;12.00;44.44
77366;BME280;66430;50.182;11.704;2024-02-15T05:12:01;94995.93;;;12.52;43.70
77366;BME280;66430;50.182;11.704;2024-02-15T05:14:25;94996.69;;;12.90;43.91
77366;BME280;66430;50.182;11.704;2024-02-15T05:16:50;94996.37;;;12.87;43.83
77366;BME280;66430;50.182;11.704;2024-02-15T05:19:17;94996.57;;;12.38;44.23
77366;BME280;66430;50.182;11.704;2024-02-15T05:21:42;94995.02;;;12.80;44.18
77366;BME280;66430;50.182;11.704;2024-02-15T05:24:07;94986.80;;;12.61;43.77
77366;BME280;66430;50.182;11.704;2024-02-15T05:26:32;94984.19;;;12.35;43.86
77366;BME280;66430;50.182;11.704;2024-02-15T05:28:58;94987.16;;;12.41;43.53
77366;BME280;66430;50.182;11.704;2024-02-15T05:31:23;94986.73;;;12.84;43.64
77366;BME280;66430;50.182;11.704;2024-02-15T05:33:49;94990.08;;;12.78;43.40
77366;BME280;66430;50.182;11.704;2024-02-15T05:36:14;94990.32;;;12.76;43.38
77366;BME280;66430;50.182;11.704;2024-02-15T05:38:40;94985.84;;;12.74;43.47
77366;BME280;66430;50.182;11.704;2024-02-15T05:41:06;94979.58;;;12.88;43.52
77366;BME280;66430;50.182;11.704;2024-02-15T05:43:31;94975.93;;;12.71;43.96
77366;BME280;66430;50.182;11.704;2024-02-15T05:45:55;94978.62;;;12.66;43.59
77366;BME280;66430;50.182;11.704;2024-02-15T05:48:21;94983.17;;;13.08;43.55
77366;BME280;66430;50.182;11.704;2024-02-15T05:50:46;94988.38;;;12.70;43.11
77366;BME280;66430;50.182;11.704;2024-02-15T05:53:12;94985.56;;;13.05;43.00
77366;BME280;66430;50.182;11.704;2024-02-15T05:55:38;94984.61;;;13.11;42.98
77366;BME280;66430;50.182;11.704;2024-02-15T05:58:03;94985.84;;;12.62;43.22
77366;BME280;66430;50.182;11.704;2024-02-15T06:00:28;94986.58;;;12.75;43.38
77366;BME280;66430;50.182;11.704;2024-02-15T06:02:54;94985.75;;;13.11;43.29
77366;BME280;66430;50.182;11.704;2024-02-15T06:05:19;94984.47;;;12.77;43.11
77366;BME280;66430;50.182;11.704;2024-02-15T06:07:45;94985.15;;;12.69;42.87
77366;BME280;66430;50.182;11.704;2024-02-15T06:10:11;94987.35;;;12.79;43.00
77366;BME280;66430;50.182;11.704;2024-02-15T06:12:36;94991.08;;;13.14;42.97
77366;BME280;66430;50.182;11.704;2024-02-15T06:15:04;94994.66;;;12.98;43.07
77366;BME280;66430;50.182;11.704;2024-02-15T06:17:27;94996.02;;;13.08;43.23
77366;BME280;66430;50.182;11.704;2024-02-15T06:19:52;94997.89;;;12.65;43.34
77366;BME280;66430;50.182;11.704;2024-02-15T06:22:18;95004.72;;;12.50;43.46
77366;BME280;66430;50.182;11.704;2024-02-15T06:24:45;95004.61;;;12.64;43.12
77366;BME280;66430;50.182;11.704;2024-02-15T06:27:09;95008.68;;;13.00;43.69
77366;BME280;66430;50.182;11.704;2024-02-15T06:29:34;95009.37;;;12.65;44.07
77366;BME280;66430;50.182;11.704;2024-02-15T06:32:00;95013.80;;;12.09;44.24
77366;BME280;66430;50.182;11.704;2024-02-15T06:34:25;95017.34;;;12.98;43.82
77366;BME280;66430;50.182;11.704;2024-02-15T06:36:53;95014.52;;;12.88;43.57
77366;BME280;66430;50.182;11.704;2024-02-15T06:39:16;95015.10;;;12.72;43.36
77366;BME280;66430;50.182;11.704;2024-02-15T06:41:40;95014.53;;;12.73;43.16
77366;BME280;66430;50.182;11.704;2024-02-15T06:44:06;95013.63;;;12.95;43.19
77366;BME280;66430;50.182;11.704;2024-02-15T06:46:32;95018.52;;;12.61;43.58
77366;BME280;66430;50.182;11.704;2024-02-15T06:48:57;95019.38;;;12.74;43.16
77366;BME280;66430;50.182;11.704;2024-02-15T06:51:23;95020.20;;;12.74;43.18
77366;BME280;66430;50.182;11.704;2024-02-15T06:53:48;95025.57;;;12.56;43.47
77366;BME280;66430;50.182;11.704;2024-02-15T06:56:13;95027.96;;;13.09;43.64
77366;BME280;66430;50.182;11.704;2024-02-15T06:58:39;95032.26;;;12.73;43.21
77366;BME280;66430;50.182;11.704;2024-02-15T07:01:04;95036.51;;;12.84;43.07
77366;BME280;66430;50.182;11.704;2024-02-15T07:03:29;95039.94;;;12.67;43.03
77366;BME280;66430;50.182;11.704;2024-02-15T07:05:56;95039.42;;;12.76;43.15
77366;BME280;66430;50.182;11.704;2024-02-15T07:08:21;95037.31;;;12.81;43.38
77366;BME280;66430;50.182;11.704;2024-02-15T07:10:47;95038.68;;;12.81;43.30
77366;BME280;66430;50.182;11.704;2024-02-15T07:13:11;95043.04;;;12.64;43.44
77366;BME280;66430;50.182;11.704;2024-02-15T07:15:37;95040.48;;;13.05;43.54
77366;BME280;66430;50.182;11.704;2024-02-15T07:18:07;95041.60;;;12.83;43.25
77366;BME280;66430;50.182;11.704;2024-02-15T07:20:27;95038.43;;;13.04;43.21
77366;BME280;66430;50.182;11.704;2024-02-15T07:22:52;95035.31;;;12.55;43.60
77366;BME280;66430;50.182;11.704;2024-02-15T07:25:18;95037.02;;;12.69;43.57
77366;BME280;66430;50.182;11.704;2024-02-15T07:27:44;95037.32;;;13.02;43.82
77366;BME280;66430;50.182;11.704;2024-02-15T07:30:10;95037.60;;;12.91;43.41
77366;BME280;66430;50.182;11.704;2024-02-15T07:32:34;95037.21;;;12.82;43.39
77366;BME280;66430;50.182;11.704;2024-02-15T07:34:59;95037.19;;;13.01;43.68
77366;BME280;66430;50.182;11.704;2024-02-15T07:37:25;95038.10;;;12.45;44.04
77366;BME280;66430;50.182;11.704;2024-02-15T07:39:51;95039.54;;;12.54;44.08
77366;BME280;66430;50.182;11.704;2024-02-15T07:42:16;95036.01;;;12.85;43.67
77366;BME280;66430;50.182;11.704;2024-02-15T07:44:41;95035.18;;;12.90;43.36
77366;BME280;66430;50.182;11.704;2024-02-15T07:47:06;95035.43;;;12.69;43.78
77366;BME280;66430;50.182;11.704;2024-02-15T07:49:32;95032.35;;;12.69;43.52
77366;BME280;66430;50.182;11.704;2024-02-15T07:51:58;95032.52;;;12.61;43.81
77366;BME280;66430;50.182;11.704;2024-02-15T07:54:24;95032.14;;;12.56;43.80
77366;BME280;66430;50.182;11.704;2024-02-15T07:56:54;95024.44;;;12.92;43.45
77366;BME280;66430;50.182;11.704;2024-02-15T07:59:15;95023.08;;;13.22;43.56
77366;BME280;66430;50.182;11.704;2024-02-15T08:01:40;95021.99;;;12.78;43.51
77366;BME280;66430;50.182;11.704;2024-02-15T08:04:06;95017.27;;;12.91;43.67
77366;BME280;66430;50.182;11.704;2024-02-15T08:06:33;95019.36;;;12.37;44.41
77366;BME280;66430;50.182;11.704;2024-02-15T08:08:56;95019.36;;;12.92;44.07
77366;BME280;66430;50.182;11.704;2024-02-15T08:11:22;95020.80;;;13.36;44.06
77366;BME280;66430;50.182;11.704;2024-02-15T08:13:49;95017.54;;;13.02;43.89
77366;BME280;66430;50.182;11.704;2024-02-15T08:16:13;95019.44;;;12.91;43.64
77366;BME280;66430;50.182;11.704;2024-02-15T08:18:39;95021.44;;;12.83;43.42
77366;BME280;66430;50.182;11.704;2024-02-15T08:21:05;95023.54;;;12.85;43.81
77366;BME280;66430;50.182;11.704;2024-02-15T08:23:30;95025.02;;;13.15;43.64
77366;BME280;66430;50.182;11.704;2024-02-15T08:25:55;95026.86;;;13.34;43.35
77366;BME280;66430;50.182;11.704;2024-02-15T08:28:20;95023.16;;;12.64;43.65
77366;BME280;66430;50.182;11.704;2024-02-15T08:30:46;95022.68;;;12.95;43.89
77366;BME280;66430;50.182;11.704;2024-02-15T08:33:11;95025.93;;;12.54;44.51
77366;BME280;66430;50.182;11.704;2024-02-15T08:35:37;95021.90;;;12.77;43.78
77366;BME280;66430;50.182;11.704;2024-02-15T08:38:07;95021.68;;;13.00;43.66
77366;BME280;66430;50.182;11.704;2024-02-15T08:40:28;95025.05;;;12.41;44.29
77366;BME280;66430;50.182;11.704;2024-02-15T08:42:53;95024.14;;;13.37;43.50
77366;BME280;66430;50.182;11.704;2024-02-15T08:45:19;95027.88;;;13.39;43.38
77366;BME280;66430;50.182;11.704;2024-02-15T08:47:45;95022.87;;;12.91;43.65
77366;BME280;66430;50.182;11.704;2024-02-15T08:50:11;95024.60;;;13.14;43.69
77366;BME280;66430;50.182;11.704;2024-02-15T08:52:35;95023.86;;;12.97;44.09
77366;BME280;66430;50.182;11.704;2024-02-15T08:55:00;95019.37;;;13.07;43.76
77366;BME280;66430;50.182;11.704;2024-02-15T08:57:26;95021.37;;;13.44;43.65
77366;BME280;66430;50.182;11.704;2024-02-15T08:59:52;95022.12;;;13.12;43.73
77366;BME280;66430;50.182;11.704;2024-02-15T09:02:17;95017.03;;;13.50;43.86
77366;BME280;66430;50.182;11.704;2024-02-15T09:04:42;95015.95;;;13.30;44.09
77366;BME280;66430;50.182;11.704;2024-02-15T09:07:08;95017.02;;;13.20;43.91
77366;BME280;66430;50.182;11.704;2024-02-15T09:09:33;95014.88;;;12.93;44.41
77366;BME280;66430;50.182;11.704;2024-02-15T09:12:01;95016.67;;;12.93;44.42
77366;BME280;66430;50.182;11.704;2024-02-15T09:14:24;95017.88;;;13.54;43.85
77366;BME280;66430;50.182;11.704;2024-02-15T09:16:49;95018.11;;;13.03;44.40
77366;BME280;66430;50.182;11.704;2024-02-15T09:19:14;95017.93;;;13.50;43.69
77366;BME280;66430;50.182;11.704;2024-02-15T09:21:40;95016.02;;;13.30;43.49
77366;BME280;66430;50.182;11.704;2024-02-15T09:24:05;95017.28;;;14.05;43.65
77366;BME280;66430;50.182;11.704;2024-02-15T09:26:31;95020.51;;;14.00;43.38
77366;BME280;66430;50.182;11.704;2024-02-15T09:28:56;95025.14;;;13.79;43.46
77366;BME280;66430;50.182;11.704;2024-02-15T09:31:22;95026.31;;;13.92;43.27
77366;BME280;66430;50.182;11.704;2024-02-15T09:33:47;95023.14;;;14.08;43.12
77366;BME280;66430;50.182;11.704;2024-02-15T09:36:12;95022.30;;;13.56;43.60
77366;BME280;66430;50.182;11.704;2024-02-15T09:38:38;95022.65;;;13.89;43.04
77366;BME280;66430;50.182;11.704;2024-02-15T09:41:03;95018.30;;;13.89;43.14
77366;BME280;66430;50.182;11.704;2024-02-15T09:43:28;95016.49;;;13.77;43.41
77366;BME280;66430;50.182;11.704;2024-02-15T09:45:56;95019.31;;;13.94;43.44
77366;BME280;66430;50.182;11.704;2024-02-15T09:48:20;95020.96;;;14.25;43.45
77366;BME280;66430;50.182;11.704;2024-02-15T09:50:45;95019.41;;;14.20;43.11
77366;BME280;66430;50.182;11.704;2024-02-15T09:53:10;95016.86;;;13.97;43.66
77366;BME280;66430;50.182;11.704;2024-02-15T09:55:35;95018.04;;;14.55;43.11
77366;BME280;66430;50.182;11.704;2024-02-15T09:58:01;95016.29;;;14.55;43.78
77366;BME280;66430;50.182;11.704;2024-02-15T10:00:27;95014.04;;;14.31;43.50
77366;BME280;66430;50.182;11.704;2024-02-15T10:02:52;95012.73;;;14.37;43.54
77366;BME280;66430;50.182;11.704;2024-02-15T10:05:18;95014.18;;;14.00;44.26
77366;BME280;66430;50.182;11.704;2024-02-15T10:07:44;95014.14;;;14.36;43.99
77366;BME280;66430;50.182;11.704;2024-02-15T10:10:15;95009.67;;;14.24;44.39
77366;BME280;66430;50.182;11.704;2024-02-15T10:12:37;95007.75;;;14.41;43.69
77366;BME280;66430;50.182;11.704;2024-02-15T10:14:59;95007.85;;;14.60;43.08
77366;BME280;66430;50.182;11.704;2024-02-15T10:17:25;95014.71;;;14.57;42.45
77366;BME280;66430;50.182;11.704;2024-02-15T10:22:16;95006.59;;;14.68;42.93
77366;BME280;66430;50.182;11.704;2024-02-15T10:24:41;95003.40;;;14.37;42.71
77366;BME280;66430;50.182;11.704;2024-02-15T10:27:06;95003.76;;;14.85;42.48
77366;BME280;66430;50.182;11.704;2024-02-15T10:29:31;95003.26;;;14.83;42.51
77366;BME280;66430;50.182;11.704;2024-02-15T10:31:58;95000.84;;;14.70;42.99
77366;BME280;66430;50.182;11.704;2024-02-15T10:34:22;94998.77;;;14.57;42.71
77366;BME280;66430;50.182;11.704;2024-02-15T10:36:48;94995.67;;;14.80;42.53
77366;BME280;66430;50.182;11.704;2024-02-15T10:39:13;94996.86;;;14.61;42.55
77366;BME280;66430;50.182;11.704;2024-02-15T10:41:38;94994.80;;;14.37;42.30
77366;BME280;66430;50.182;11.704;2024-02-15T10:44:03;94991.37;;;14.61;42.06
77366;BME280;66430;50.182;11.704;2024-02-15T10:46:28;94990.96;;;14.64;42.23
77366;BME280;66430;50.182;11.704;2024-02-15T10:51:20;94990.05;;;13.85;41.39
77366;BME280;66430;50.182;11.704;2024-02-15T10:53:51;94987.86;;;15.09;41.34
77366;BME280;66430;50.182;11.704;2024-02-15T10:56:15;94989.40;;;15.12;41.60
77366;BME280;66430;50.182;11.704;2024-02-15T10:58:43;94986.13;;;15.08;41.90
77366;BME280;66430;50.182;11.704;2024-02-15T11:01:01;94976.61;;;15.07;41.63
77366;BME280;66430;50.182;11.704;2024-02-15T11:03:29;94969.44;;;15.31;41.74
77366;BME280;66430;50.182;11.704;2024-02-15T11:05:51;94967.26;;;15.12;41.72
77366;BME280;66430;50.182;11.704;2024-02-15T11:08:16;94967.60;;;14.61;42.27
77366;BME280;66430;50.182;11.704;2024-02-15T11:10:42;94966.06;;;15.20;42.06
77366;BME280;66430;50.182;11.704;2024-02-15T11:13:10;94961.26;;;15.14;41.46
77366;BME280;66430;50.182;11.704;2024-02-15T11:15:41;94961.12;;;14.67;42.37
77366;BME280;66430;50.182;11.704;2024-02-15T11:17:58;94961.23;;;14.94;42.23
77366;BME280;66430;50.182;11.704;2024-02-15T11:22:57;94955.42;;;15.16;41.23
77366;BME280;66430;50.182;11.704;2024-02-15T11:25:23;94960.48;;;14.29;43.11
77366;BME280;66430;50.182;11.704;2024-02-15T11:27:45;94963.20;;;15.12;42.24
77366;BME280;66430;50.182;11.704;2024-02-15T11:30:06;94961.94;;;14.77;42.25
77366;BME280;66430;50.182;11.704;2024-02-15T11:32:37;94960.81;;;14.48;42.26
77366;BME280;66430;50.182;11.704;2024-02-15T11:35:04;94957.27;;;15.09;41.73
77366;BME280;66430;50.182;11.704;2024-02-15T11:39:47;94951.24;;;15.30;41.44
77366;BME280;66430;50.182;11.704;2024-02-15T11:42:25;94954.31;;;14.80;42.06
77366;BME280;66430;50.182;11.704;2024-02-15T11:44:37;94951.34;;;15.46;41.58
77366;BME280;66430;50.182;11.704;2024-02-15T11:47:09;94949.47;;;15.11;41.78
77366;BME280;66430;50.182;11.704;2024-02-15T11:49:29;94947.56;;;15.45;41.47
77366;BME280;66430;50.182;11.704;2024-02-15T11:51:53;94951.78;;;14.91;41.91
77366;BME280;66430;50.182;11.704;2024-02-15T11:54:20;94949.59;;;15.27;41.09
77366;BME280;66430;50.182;11.704;2024-02-15T11:56:51;94947.67;;;15.54;41.45
77366;BME280;66430;50.182;11.704;2024-02-15T11:59:09;94948.65;;;15.45;41.77
77366;BME280;66430;50.182;11.704;2024-02-15T12:01:34;94948.33;;;15.01;42.21
77366;BME280;66430;50.182;11.704;2024-02-15T12:04:05;94944.47;;;15.40;41.92
77366;BME280;66430;50.182;11.704;2024-02-15T12:06:25;94938.43;;;15.77;41.60
77366;BME280;66430;50.182;11.704;2024-02-15T12:08:53;94934.74;;;15.18;41.48
77366;BME280;66430;50.182;11.704;2024-02-15T12:11:16;94930.67;;;15.08;42.32
77366;BME280;66430;50.182;11.704;2024-02-15T12:13:41;94925.11;;;15.80;41.97
77366;BME280;66430;50.182;11.704;2024-02-15T12:16:07;94926.28;;;15.08;41.90
77366;BME280;66430;50.182;11.704;2024-02-15T12:18:32;94930.01;;;15.50;42.42
77366;BME280;66430;50.182;11.704;2024-02-15T12:20:58;94933.83;;;15.70;42.20
77366;BME280;66430;50.182;11.704;2024-02-15T12:23:23;94937.00;;;15.75;41.76
77366;BME280;66430;50.182;11.704;2024-02-15T12:25:51;94937.31;;;16.07;41.61
77366;BME280;66430;50.182;11.704;2024-02-15T12:28:14;94932.10;;;15.78;41.37
77366;BME280;66430;50.182;11.704;2024-02-15T12:30:38;94928.52;;;15.66;40.74
77366;BME280;66430;50.182;11.704;2024-02-15T12:33:09;94926.42;;;15.73;40.79
77366;BME280;66430;50.182;11.704;2024-02-15T12:35:29;94925.77;;;16.07;41.18
77366;BME280;66430;50.182;11.704;2024-02-15T12:38:03;94923.75;;;15.59;41.16
77366;BME280;66430;50.182;11.704;2024-02-15T12:40:20;94920.63;;;15.84;41.42
77366;BME280;66430;50.182;11.704;2024-02-15T12:42:46;94922.91;;;15.41;41.41
77366;BME280;66430;50.182;11.704;2024-02-15T12:45:16;94914.63;;;15.16;41.51
77366;BME280;66430;50.182;11.704;2024-02-15T12:47:36;94916.90;;;15.55;41.22
77366;BME280;66430;50.182;11.704;2024-02-15T12:52:36;94918.52;;;15.99;41.06